sensor_id;sensor_type;location;lat;lon;timestamp;P1;durP1;ratioP1;P2;durP2;ratioP2
9815;SDS011;4947;44.526;11.360;2022-07-21T00:01:59;15.88;;;10.63;;
9815;SDS011;4947;44.526;11.360;2022-07-21T00:04:26;13.88;;;9.75;;
9815;SDS011;4947;44.526;11.360;2022-07-21T00:06:55;16.98;;;9.90;;
9815;SDS011;4947;44.526;11.360;2022-07-21T00:09:22;20.65;;;10.18;;
9815;SDS011;4947;44.526;11.360;2022-07-21T00:11:50;16.40;;;10.20;;
9815;SDS011;4947;44.526;11.360;2022-07-21T00:14:18;16.83;;;10.70;;
9815;SDS011;4947;44.526;11.360;2022-07-21T00:16:45;20.05;;;9.90;;
9815;SDS011;4947;44.526;11.360;2022-07-21T00:19:13;15.02;;;10.10;;
9815;SDS011;4947;44.526;11.360;2022-07-21T00:21:40;16.85;;;10.02;;
9815;SDS011;4947;44.526;11.360;2022-07-21T00:24:09;16.10;;;9.82;;
9815;SDS011;4947;44.526;11.360;2022-07-21T00:26:37;16.33;;;10.27;;
9815;SDS011;4947;44.526;11.360;2022-07-21T00:29:09;19.67;;;9.10;;
9815;SDS011;4947;44.526;11.360;2022-07-21T00:31:37;15.93;;;9.75;;
9815;SDS011;4947;44.526;11.360;2022-07-21T00:34:04;17.23;;;9.43;;
9815;SDS011;4947;44.526;11.360;2022-07-21T00:36:32;19.35;;;9.80;;
9815;SDS011;4947;44.526;11.360;2022-07-21T00:38:59;12.95;;;9.88;;
9815;SDS011;4947;44.526;11.360;2022-07-21T00:41:28;17.77;;;9.57;;
9815;SDS011;4947;44.526;11.360;2022-07-21T00:43:55;19.23;;;10.25;;
9815;SDS011;4947;44.526;11.360;2022-07-21T00:46:23;16.83;;;9.25;;
9815;SDS011;4947;44.526;11.360;2022-07-21T00:48:50;14.65;;;9.73;;
9815;SDS011;4947;44.526;11.360;2022-07-21T00:51:18;15.48;;;8.95;;
9815;SDS011;4947;44.526;11.360;2022-07-21T00:53:45;15.02;;;9.70;;
9815;SDS011;4947;44.526;11.360;2022-07-21T00:56:13;19.33;;;9.70;;
9815;SDS011;4947;44.526;11.360;2022-07-21T00:58:43;16.38;;;9.55;;
9815;SDS011;4947;44.526;11.360;2022-07-21T01:01:11;16.38;;;9.55;;
9815;SDS011;4947;44.526;11.360;2022-07-21T01:03:43;11.90;;;9.70;;
9815;SDS011;4947;44.526;11.360;2022-07-21T01:06:11;12.38;;;10.13;;
9815;SDS011;4947;44.526;11.360;2022-07-21T01:08:38;15.85;;;9.32;;
9815;SDS011;4947;44.526;11.360;2022-07-21T01:11:05;15.45;;;9.52;;
9815;SDS011;4947;44.526;11.360;2022-07-21T01:13:33;16.52;;;9.80;;
9815;SDS011;4947;44.526;11.360;2022-07-21T01:16:08;13.98;;;9.45;;
9815;SDS011;4947;44.526;11.360;2022-07-21T01:18:35;17.55;;;9.07;;
9815;SDS011;4947;44.526;11.360;2022-07-21T01:23:40;17.95;;;9.40;;
9815;SDS011;4947;44.526;11.360;2022-07-21T01:26:08;15.52;;;8.77;;
9815;SDS011;4947;44.526;11.360;2022-07-21T01:28:36;15.02;;;10.85;;
9815;SDS011;4947;44.526;11.360;2022-07-21T01:31:03;13.40;;;8.95;;
9815;SDS011;4947;44.526;11.360;2022-07-21T01:33:34;14.30;;;9.30;;
9815;SDS011;4947;44.526;11.360;2022-07-21T01:36:01;13.05;;;8.43;;
9815;SDS011;4947;44.526;11.360;2022-07-21T01:38:31;20.08;;;9.55;;
9815;SDS011;4947;44.526;11.360;2022-07-21T01:41:15;12.32;;;9.30;;
9815;SDS011;4947;44.526;11.360;2022-07-21T01:43:59;13.73;;;9.07;;
9815;SDS011;4947;44.526;11.360;2022-07-21T01:46:28;13.13;;;9.73;;
9815;SDS011;4947;44.526;11.360;2022-07-21T01:48:56;13.35;;;9.50;;
9815;SDS011;4947;44.526;11.360;2022-07-21T01:51:24;11.32;;;8.77;;
9815;SDS011;4947;44.526;11.360;2022-07-21T01:53:53;17.38;;;9.45;;
9815;SDS011;4947;44.526;11.360;2022-07-21T01:56:22;14.02;;;8.65;;
9815;SDS011;4947;44.526;11.360;2022-07-21T01:58:51;17.05;;;10.02;;
9815;SDS011;4947;44.526;11.360;2022-07-21T02:01:20;16.48;;;9.45;;
9815;SDS011;4947;44.526;11.360;2022-07-21T02:03:49;13.40;;;10.30;;
9815;SDS011;4947;44.526;11.360;2022-07-21T02:06:17;12.90;;;9.00;;
9815;SDS011;4947;44.526;11.360;2022-07-21T02:08:44;18.98;;;10.35;;
9815;SDS011;4947;44.526;11.360;2022-07-21T02:11:14;14.18;;;8.82;;
9815;SDS011;4947;44.526;11.360;2022-07-21T02:13:42;13.25;;;8.80;;
9815;SDS011;4947;44.526;11.360;2022-07-21T02:16:11;13.43;;;8.40;;
9815;SDS011;4947;44.526;11.360;2022-07-21T02:18:39;12.10;;;8.32;;
9815;SDS011;4947;44.526;11.360;2022-07-21T02:21:07;17.85;;;9.40;;
9815;SDS011;4947;44.526;11.360;2022-07-21T02:23:35;13.43;;;8.25;;
9815;SDS011;4947;44.526;11.360;2022-07-21T02:26:03;12.00;;;8.48;;
9815;SDS011;4947;44.526;11.360;2022-07-21T02:28:32;15.32;;;8.73;;
9815;SDS011;4947;44.526;11.360;2022-07-21T02:31:00;14.98;;;8.32;;
9815;SDS011;4947;44.526;11.360;2022-07-21T02:33:28;13.25;;;8.63;;
9815;SDS011;4947;44.526;11.360;2022-07-21T02:35:55;21.45;;;9.48;;
9815;SDS011;4947;44.526;11.360;2022-07-21T02:38:23;12.95;;;8.63;;
9815;SDS011;4947;44.526;11.360;2022-07-21T02:40:51;14.15;;;8.88;;
9815;SDS011;4947;44.526;11.360;2022-07-21T02:43:18;13.20;;;8.82;;
9815;SDS011;4947;44.526;11.360;2022-07-21T02:45:47;15.20;;;8.70;;
9815;SDS011;4947;44.526;11.360;2022-07-21T02:48:15;14.23;;;8.55;;
9815;SDS011;4947;44.526;11.360;2022-07-21T02:50:43;11.60;;;8.85;;
9815;SDS011;4947;44.526;11.360;2022-07-21T02:53:11;12.82;;;8.63;;
9815;SDS011;4947;44.526;11.360;2022-07-21T02:55:43;12.13;;;8.40;;
9815;SDS011;4947;44.526;11.360;2022-07-21T02:58:11;20.05;;;8.80;;
9815;SDS011;4947;44.526;11.360;2022-07-21T03:00:40;24.95;;;10.07;;
9815;SDS011;4947;44.526;11.360;2022-07-21T03:03:10;17.00;;;9.48;;
9815;SDS011;4947;44.526;11.360;2022-07-21T03:05:38;18.33;;;8.63;;
9815;SDS011;4947;44.526;11.360;2022-07-21T03:08:06;14.90;;;9.25;;
9815;SDS011;4947;44.526;11.360;2022-07-21T03:10:35;20.25;;;9.30;;
9815;SDS011;4947;44.526;11.360;2022-07-21T03:13:04;14.38;;;9.02;;
9815;SDS011;4947;44.526;11.360;2022-07-21T03:15:32;14.02;;;9.10;;
9815;SDS011;4947;44.526;11.360;2022-07-21T03:18:00;13.07;;;8.65;;
9815;SDS011;4947;44.526;11.360;2022-07-21T03:20:30;13.95;;;8.95;;
9815;SDS011;4947;44.526;11.360;2022-07-21T03:22:59;11.95;;;8.82;;
9815;SDS011;4947;44.526;11.360;2022-07-21T03:25:27;15.32;;;9.63;;
9815;SDS011;4947;44.526;11.360;2022-07-21T03:27:54;16.17;;;9.65;;
9815;SDS011;4947;44.526;11.360;2022-07-21T03:30:22;12.95;;;9.35;;
9815;SDS011;4947;44.526;11.360;2022-07-21T03:32:51;17.08;;;9.43;;
9815;SDS011;4947;44.526;11.360;2022-07-21T03:35:19;15.30;;;9.68;;
9815;SDS011;4947;44.526;11.360;2022-07-21T03:37:49;18.35;;;9.85;;
9815;SDS011;4947;44.526;11.360;2022-07-21T03:40:18;14.75;;;9.43;;
9815;SDS011;4947;44.526;11.360;2022-07-21T03:42:48;14.00;;;9.23;;
9815;SDS011;4947;44.526;11.360;2022-07-21T03:45:16;13.90;;;9.35;;
9815;SDS011;4947;44.526;11.360;2022-07-21T03:47:43;11.73;;;9.07;;
9815;SDS011;4947;44.526;11.360;2022-07-21T03:50:11;15.35;;;9.05;;
9815;SDS011;4947;44.526;11.360;2022-07-21T03:52:39;12.23;;;9.30;;
9815;SDS011;4947;44.526;11.360;2022-07-21T03:55:09;13.68;;;8.93;;
9815;SDS011;4947;44.526;11.360;2022-07-21T03:57:40;13.38;;;8.73;;
9815;SDS011;4947;44.526;11.360;2022-07-21T04:00:10;11.80;;;8.75;;
9815;SDS011;4947;44.526;11.360;2022-07-21T04:02:39;15.82;;;9.35;;
9815;SDS011;4947;44.526;11.360;2022-07-21T04:05:08;22.35;;;9.68;;
9815;SDS011;4947;44.526;11.360;2022-07-21T04:07:38;17.65;;;9.57;;
9815;SDS011;4947;44.526;11.360;2022-07-21T04:10:07;13.70;;;9.52;;
9815;SDS011;4947;44.526;11.360;2022-07-21T04:12:37;12.98;;;9.45;;
9815;SDS011;4947;44.526;11.360;2022-07-21T04:15:06;17.75;;;9.02;;
9815;SDS011;4947;44.526;11.360;2022-07-21T04:17:35;13.68;;;9.50;;
9815;SDS011;4947;44.526;11.360;2022-07-21T04:20:03;15.70;;;9.85;;
9815;SDS011;4947;44.526;11.360;2022-07-21T04:22:32;20.38;;;9.60;;
9815;SDS011;4947;44.526;11.360;2022-07-21T04:25:00;25.30;;;10.52;;
9815;SDS011;4947;44.526;11.360;2022-07-21T04:27:29;23.42;;;11.50;;
9815;SDS011;4947;44.526;11.360;2022-07-21T04:29:57;22.77;;;10.18;;
9815;SDS011;4947;44.526;11.360;2022-07-21T04:32:24;20.70;;;10.15;;
9815;SDS011;4947;44.526;11.360;2022-07-21T04:34:51;19.95;;;10.10;;
9815;SDS011;4947;44.526;11.360;2022-07-21T04:37:20;18.95;;;9.80;;
9815;SDS011;4947;44.526;11.360;2022-07-21T04:39:47;18.02;;;9.38;;
9815;SDS011;4947;44.526;11.360;2022-07-21T04:42:15;17.48;;;10.18;;
9815;SDS011;4947;44.526;11.360;2022-07-21T04:44:47;23.33;;;9.25;;
9815;SDS011;4947;44.526;11.360;2022-07-21T04:47:15;15.90;;;8.75;;
9815;SDS011;4947;44.526;11.360;2022-07-21T04:49:42;21.38;;;9.68;;
9815;SDS011;4947;44.526;11.360;2022-07-21T04:52:10;19.38;;;9.02;;
9815;SDS011;4947;44.526;11.360;2022-07-21T04:54:37;15.63;;;9.23;;
9815;SDS011;4947;44.526;11.360;2022-07-21T04:57:05;21.00;;;9.90;;
9815;SDS011;4947;44.526;11.360;2022-07-21T04:59:32;20.27;;;9.10;;
9815;SDS011;4947;44.526;11.360;2022-07-21T05:02:02;14.05;;;8.95;;
9815;SDS011;4947;44.526;11.360;2022-07-21T05:04:31;16.10;;;8.88;;
9815;SDS011;4947;44.526;11.360;2022-07-21T05:06:59;17.35;;;8.45;;
9815;SDS011;4947;44.526;11.360;2022-07-21T05:09:26;15.98;;;9.50;;
9815;SDS011;4947;44.526;11.360;2022-07-21T05:11:57;14.80;;;8.68;;
9815;SDS011;4947;44.526;11.360;2022-07-21T05:14:25;13.57;;;8.73;;
9815;SDS011;4947;44.526;11.360;2022-07-21T05:16:53;21.67;;;9.30;;
9815;SDS011;4947;44.526;11.360;2022-07-21T05:19:21;16.27;;;8.55;;
9815;SDS011;4947;44.526;11.360;2022-07-21T05:21:49;13.95;;;9.05;;
9815;SDS011;4947;44.526;11.360;2022-07-21T05:24:17;15.32;;;8.45;;
9815;SDS011;4947;44.526;11.360;2022-07-21T05:26:44;20.58;;;8.50;;
9815;SDS011;4947;44.526;11.360;2022-07-21T05:29:11;11.82;;;8.35;;
9815;SDS011;4947;44.526;11.360;2022-07-21T05:31:39;18.10;;;8.60;;
9815;SDS011;4947;44.526;11.360;2022-07-21T05:34:06;14.13;;;7.95;;
9815;SDS011;4947;44.526;11.360;2022-07-21T05:36:36;11.60;;;7.65;;
9815;SDS011;4947;44.526;11.360;2022-07-21T05:39:03;12.55;;;8.00;;
9815;SDS011;4947;44.526;11.360;2022-07-21T05:41:31;12.68;;;8.02;;
9815;SDS011;4947;44.526;11.360;2022-07-21T05:43:59;13.40;;;6.82;;
9815;SDS011;4947;44.526;11.360;2022-07-21T05:46:26;10.32;;;7.57;;
9815;SDS011;4947;44.526;11.360;2022-07-21T05:48:54;14.10;;;8.15;;
9815;SDS011;4947;44.526;11.360;2022-07-21T05:51:21;15.30;;;7.63;;
9815;SDS011;4947;44.526;11.360;2022-07-21T05:53:50;10.50;;;7.22;;
9815;SDS011;4947;44.526;11.360;2022-07-21T05:56:18;16.20;;;6.88;;
9815;SDS011;4947;44.526;11.360;2022-07-21T05:58:46;15.93;;;7.28;;
9815;SDS011;4947;44.526;11.360;2022-07-21T06:01:13;20.42;;;7.75;;
9815;SDS011;4947;44.526;11.360;2022-07-21T06:03:42;20.33;;;7.68;;
9815;SDS011;4947;44.526;11.360;2022-07-21T06:06:11;18.70;;;7.80;;
9815;SDS011;4947;44.526;11.360;2022-07-21T06:08:40;8.90;;;6.88;;
9815;SDS011;4947;44.526;11.360;2022-07-21T06:11:10;16.42;;;7.10;;
9815;SDS011;4947;44.526;11.360;2022-07-21T06:13:39;9.18;;;7.00;;
9815;SDS011;4947;44.526;11.360;2022-07-21T06:16:07;9.23;;;6.47;;
9815;SDS011;4947;44.526;11.360;2022-07-21T06:18:35;12.52;;;7.00;;
9815;SDS011;4947;44.526;11.360;2022-07-21T06:21:03;9.93;;;6.95;;
9815;SDS011;4947;44.526;11.360;2022-07-21T06:23:31;12.40;;;6.57;;
9815;SDS011;4947;44.526;11.360;2022-07-21T06:25:59;13.57;;;6.93;;
9815;SDS011;4947;44.526;11.360;2022-07-21T06:28:27;11.10;;;7.20;;
9815;SDS011;4947;44.526;11.360;2022-07-21T06:30:55;11.50;;;7.55;;
9815;SDS011;4947;44.526;11.360;2022-07-21T06:33:22;9.25;;;7.10;;
9815;SDS011;4947;44.526;11.360;2022-07-21T06:35:50;12.77;;;6.50;;
9815;SDS011;4947;44.526;11.360;2022-07-21T06:38:17;17.25;;;6.32;;
9815;SDS011;4947;44.526;11.360;2022-07-21T06:40:45;10.63;;;6.45;;
9815;SDS011;4947;44.526;11.360;2022-07-21T06:43:13;12.10;;;6.72;;
9815;SDS011;4947;44.526;11.360;2022-07-21T06:45:41;10.57;;;7.07;;
9815;SDS011;4947;44.526;11.360;2022-07-21T06:48:09;16.83;;;7.57;;
9815;SDS011;4947;44.526;11.360;2022-07-21T06:50:37;12.43;;;7.00;;
9815;SDS011;4947;44.526;11.360;2022-07-21T06:53:05;18.42;;;7.03;;
9815;SDS011;4947;44.526;11.360;2022-07-21T06:55:34;12.85;;;6.25;;
9815;SDS011;4947;44.526;11.360;2022-07-21T06:58:08;10.20;;;6.93;;
9815;SDS011;4947;44.526;11.360;2022-07-21T07:00:37;13.50;;;5.97;;
9815;SDS011;4947;44.526;11.360;2022-07-21T07:03:06;15.60;;;6.82;;
9815;SDS011;4947;44.526;11.360;2022-07-21T07:05:36;8.80;;;6.53;;
9815;SDS011;4947;44.526;11.360;2022-07-21T07:08:04;12.43;;;6.80;;
9815;SDS011;4947;44.526;11.360;2022-07-21T07:10:32;15.15;;;6.13;;
9815;SDS011;4947;44.526;11.360;2022-07-21T07:13:00;14.52;;;5.88;;
9815;SDS011;4947;44.526;11.360;2022-07-21T07:15:28;10.73;;;5.75;;
9815;SDS011;4947;44.526;11.360;2022-07-21T07:17:55;18.17;;;6.07;;
9815;SDS011;4947;44.526;11.360;2022-07-21T07:20:24;8.13;;;6.00;;
9815;SDS011;4947;44.526;11.360;2022-07-21T07:22:52;12.23;;;5.82;;
9815;SDS011;4947;44.526;11.360;2022-07-21T07:25:20;16.20;;;6.28;;
9815;SDS011;4947;44.526;11.360;2022-07-21T07:27:48;9.95;;;6.15;;
9815;SDS011;4947;44.526;11.360;2022-07-21T07:30:18;15.27;;;6.40;;
9815;SDS011;4947;44.526;11.360;2022-07-21T07:32:46;9.07;;;6.25;;
9815;SDS011;4947;44.526;11.360;2022-07-21T07:35:13;10.15;;;6.43;;
9815;SDS011;4947;44.526;11.360;2022-07-21T07:37:44;12.93;;;6.45;;
9815;SDS011;4947;44.526;11.360;2022-07-21T07:40:13;8.88;;;6.15;;
9815;SDS011;4947;44.526;11.360;2022-07-21T07:42:42;9.75;;;6.47;;
9815;SDS011;4947;44.526;11.360;2022-07-21T07:45:09;14.18;;;7.20;;
9815;SDS011;4947;44.526;11.360;2022-07-21T07:47:37;9.82;;;6.38;;
9815;SDS011;4947;44.526;11.360;2022-07-21T07:50:07;10.80;;;7.10;;
9815;SDS011;4947;44.526;11.360;2022-07-21T07:52:36;8.15;;;6.45;;
9815;SDS011;4947;44.526;11.360;2022-07-21T07:55:08;11.93;;;6.72;;
9815;SDS011;4947;44.526;11.360;2022-07-21T07:57:37;13.45;;;6.30;;
9815;SDS011;4947;44.526;11.360;2022-07-21T08:00:06;14.18;;;6.68;;
9815;SDS011;4947;44.526;11.360;2022-07-21T08:02:35;7.57;;;6.10;;
9815;SDS011;4947;44.526;11.360;2022-07-21T08:05:03;8.68;;;5.15;;
9815;SDS011;4947;44.526;11.360;2022-07-21T08:07:31;13.00;;;5.68;;
9815;SDS011;4947;44.526;11.360;2022-07-21T08:09:59;9.15;;;5.45;;
9815;SDS011;4947;44.526;11.360;2022-07-21T08:12:28;9.57;;;5.47;;
9815;SDS011;4947;44.526;11.360;2022-07-21T08:14:56;11.05;;;6.00;;
9815;SDS011;4947;44.526;11.360;2022-07-21T08:17:24;9.10;;;5.18;;
9815;SDS011;4947;44.526;11.360;2022-07-21T08:19:51;10.77;;;5.38;;
9815;SDS011;4947;44.526;11.360;2022-07-21T08:22:19;5.90;;;4.93;;
9815;SDS011;4947;44.526;11.360;2022-07-21T08:24:46;7.95;;;5.18;;
9815;SDS011;4947;44.526;11.360;2022-07-21T08:27:14;7.78;;;5.18;;
9815;SDS011;4947;44.526;11.360;2022-07-21T08:29:43;11.15;;;5.47;;
9815;SDS011;4947;44.526;11.360;2022-07-21T08:32:11;8.32;;;4.85;;
9815;SDS011;4947;44.526;11.360;2022-07-21T08:34:38;7.88;;;4.80;;
9815;SDS011;4947;44.526;11.360;2022-07-21T08:37:06;5.57;;;4.35;;
9815;SDS011;4947;44.526;11.360;2022-07-21T08:39:33;7.28;;;4.60;;
9815;SDS011;4947;44.526;11.360;2022-07-21T08:42:01;6.10;;;3.80;;
9815;SDS011;4947;44.526;11.360;2022-07-21T08:44:29;6.82;;;4.20;;
9815;SDS011;4947;44.526;11.360;2022-07-21T08:46:58;8.00;;;4.25;;
9815;SDS011;4947;44.526;11.360;2022-07-21T08:49:26;9.88;;;4.22;;
9815;SDS011;4947;44.526;11.360;2022-07-21T08:51:54;9.75;;;3.95;;
9815;SDS011;4947;44.526;11.360;2022-07-21T08:54:21;7.75;;;3.60;;
9815;SDS011;4947;44.526;11.360;2022-07-21T08:56:49;8.48;;;3.83;;
9815;SDS011;4947;44.526;11.360;2022-07-21T08:59:17;5.75;;;3.85;;
9815;SDS011;4947;44.526;11.360;2022-07-21T09:01:47;5.00;;;3.28;;
9815;SDS011;4947;44.526;11.360;2022-07-21T09:04:24;6.30;;;3.10;;
9815;SDS011;4947;44.526;11.360;2022-07-21T09:06:53;5.95;;;3.28;;
9815;SDS011;4947;44.526;11.360;2022-07-21T09:09:22;7.70;;;3.22;;
9815;SDS011;4947;44.526;11.360;2022-07-21T09:11:55;7.53;;;3.25;;
9815;SDS011;4947;44.526;11.360;2022-07-21T09:14:23;6.05;;;2.65;;
9815;SDS011;4947;44.526;11.360;2022-07-21T09:16:53;8.13;;;2.97;;
9815;SDS011;4947;44.526;11.360;2022-07-21T09:19:24;3.50;;;2.55;;
9815;SDS011;4947;44.526;11.360;2022-07-21T09:21:53;2.85;;;2.53;;
9815;SDS011;4947;44.526;11.360;2022-07-21T09:24:22;4.10;;;2.50;;
9815;SDS011;4947;44.526;11.360;2022-07-21T09:29:40;7.70;;;2.63;;
9815;SDS011;4947;44.526;11.360;2022-07-21T09:32:21;8.57;;;2.38;;
9815;SDS011;4947;44.526;11.360;2022-07-21T09:34:52;6.35;;;2.28;;
9815;SDS011;4947;44.526;11.360;2022-07-21T09:37:21;7.97;;;2.50;;
9815;SDS011;4947;44.526;11.360;2022-07-21T09:39:50;3.45;;;1.85;;
9815;SDS011;4947;44.526;11.360;2022-07-21T09:42:20;8.90;;;2.50;;
9815;SDS011;4947;44.526;11.360;2022-07-21T09:44:49;6.78;;;2.97;;
9815;SDS011;4947;44.526;11.360;2022-07-21T09:47:19;4.03;;;2.20;;
9815;SDS011;4947;44.526;11.360;2022-07-21T09:49:48;4.70;;;2.58;;
9815;SDS011;4947;44.526;11.360;2022-07-21T09:52:30;4.30;;;2.72;;
9815;SDS011;4947;44.526;11.360;2022-07-21T09:55:01;4.28;;;2.20;;
9815;SDS011;4947;44.526;11.360;2022-07-21T09:57:30;6.13;;;2.58;;
9815;SDS011;4947;44.526;11.360;2022-07-21T09:59:58;3.03;;;2.72;;
9815;SDS011;4947;44.526;11.360;2022-07-21T10:02:29;4.80;;;2.50;;
9815;SDS011;4947;44.526;11.360;2022-07-21T10:04:58;6.00;;;2.50;;
9815;SDS011;4947;44.526;11.360;2022-07-21T10:07:28;6.70;;;2.35;;
9815;SDS011;4947;44.526;11.360;2022-07-21T10:09:56;4.78;;;2.45;;
9815;SDS011;4947;44.526;11.360;2022-07-21T10:12:25;6.85;;;2.88;;
9815;SDS011;4947;44.526;11.360;2022-07-21T10:14:54;3.08;;;2.25;;
9815;SDS011;4947;44.526;11.360;2022-07-21T10:17:22;7.95;;;2.50;;
9815;SDS011;4947;44.526;11.360;2022-07-21T10:19:57;6.53;;;2.83;;
9815;SDS011;4947;44.526;11.360;2022-07-21T10:22:34;4.10;;;2.78;;
9815;SDS011;4947;44.526;11.360;2022-07-21T10:25:10;4.15;;;2.75;;
9815;SDS011;4947;44.526;11.360;2022-07-21T10:27:38;4.32;;;2.50;;
9815;SDS011;4947;44.526;11.360;2022-07-21T10:30:25;4.05;;;2.17;;
9815;SDS011;4947;44.526;11.360;2022-07-21T10:33:06;7.88;;;2.60;;
9815;SDS011;4947;44.526;11.360;2022-07-21T10:35:33;5.13;;;2.60;;
9815;SDS011;4947;44.526;11.360;2022-07-21T10:38:02;3.38;;;2.45;;
9815;SDS011;4947;44.526;11.360;2022-07-21T10:40:37;4.07;;;2.50;;
9815;SDS011;4947;44.526;11.360;2022-07-21T10:49:11;5.95;;;2.80;;
9815;SDS011;4947;44.526;11.360;2022-07-21T10:55:15;5.05;;;2.53;;
9815;SDS011;4947;44.526;11.360;2022-07-21T10:58:08;4.60;;;2.17;;
9815;SDS011;4947;44.526;11.360;2022-07-21T11:00:42;4.47;;;2.00;;
9815;SDS011;4947;44.526;11.360;2022-07-21T11:08:47;5.13;;;2.20;;
9815;SDS011;4947;44.526;11.360;2022-07-21T11:11:18;6.57;;;2.42;;
9815;SDS011;4947;44.526;11.360;2022-07-21T11:13:58;3.13;;;2.28;;
9815;SDS011;4947;44.526;11.360;2022-07-21T11:19:51;4.40;;;2.45;;
9815;SDS011;4947;44.526;11.360;2022-07-21T11:22:19;4.68;;;2.08;;
9815;SDS011;4947;44.526;11.360;2022-07-21T11:24:49;4.40;;;2.55;;
9815;SDS011;4947;44.526;11.360;2022-07-21T11:27:20;5.85;;;2.90;;
9815;SDS011;4947;44.526;11.360;2022-07-21T11:29:49;4.40;;;2.78;;
9815;SDS011;4947;44.526;11.360;2022-07-21T11:32:18;5.43;;;2.88;;
9815;SDS011;4947;44.526;11.360;2022-07-21T11:34:46;5.45;;;2.70;;
9815;SDS011;4947;44.526;11.360;2022-07-21T11:37:15;2.90;;;2.10;;
9815;SDS011;4947;44.526;11.360;2022-07-21T11:39:44;4.25;;;2.40;;
9815;SDS011;4947;44.526;11.360;2022-07-21T11:42:12;5.78;;;2.95;;
9815;SDS011;4947;44.526;11.360;2022-07-21T11:44:42;3.63;;;2.40;;
9815;SDS011;4947;44.526;11.360;2022-07-21T11:47:10;6.47;;;2.80;;
9815;SDS011;4947;44.526;11.360;2022-07-21T11:49:39;11.40;;;2.95;;
9815;SDS011;4947;44.526;11.360;2022-07-21T11:52:08;4.15;;;2.38;;
9815;SDS011;4947;44.526;11.360;2022-07-21T11:54:37;3.42;;;2.50;;
9815;SDS011;4947;44.526;11.360;2022-07-21T11:57:09;7.18;;;2.53;;
9815;SDS011;4947;44.526;11.360;2022-07-21T11:59:38;4.93;;;2.20;;
9815;SDS011;4947;44.526;11.360;2022-07-21T12:02:09;7.82;;;2.65;;
9815;SDS011;4947;44.526;11.360;2022-07-21T12:04:39;7.78;;;3.63;;
9815;SDS011;4947;44.526;11.360;2022-07-21T12:07:12;3.75;;;3.20;;
9815;SDS011;4947;44.526;11.360;2022-07-21T12:09:45;4.63;;;2.47;;
9815;SDS011;4947;44.526;11.360;2022-07-21T12:12:14;3.88;;;2.25;;
9815;SDS011;4947;44.526;11.360;2022-07-21T12:14:42;3.45;;;2.58;;
9815;SDS011;4947;44.526;11.360;2022-07-21T12:17:16;3.22;;;2.35;;
9815;SDS011;4947;44.526;11.360;2022-07-21T12:19:58;2.85;;;2.53;;
9815;SDS011;4947;44.526;11.360;2022-07-21T12:22:36;5.45;;;2.53;;
9815;SDS011;4947;44.526;11.360;2022-07-21T12:25:06;4.40;;;2.42;;
9815;SDS011;4947;44.526;11.360;2022-07-21T12:27:35;7.25;;;2.85;;
9815;SDS011;4947;44.526;11.360;2022-07-21T12:30:04;3.45;;;2.20;;
9815;SDS011;4947;44.526;11.360;2022-07-21T12:32:38;5.03;;;2.60;;
9815;SDS011;4947;44.526;11.360;2022-07-21T12:35:16;4.95;;;2.35;;
9815;SDS011;4947;44.526;11.360;2022-07-21T12:37:51;4.50;;;2.47;;
9815;SDS011;4947;44.526;11.360;2022-07-21T12:40:20;6.47;;;2.40;;
9815;SDS011;4947;44.526;11.360;2022-07-21T12:42:48;8.30;;;2.63;;
9815;SDS011;4947;44.526;11.360;2022-07-21T12:45:18;2.70;;;2.40;;
9815;SDS011;4947;44.526;11.360;2022-07-21T12:48:07;6.40;;;2.78;;
9815;SDS011;4947;44.526;11.360;2022-07-21T12:50:34;10.13;;;2.63;;
9815;SDS011;4947;44.526;11.360;2022-07-21T12:53:03;3.22;;;2.53;;
9815;SDS011;4947;44.526;11.360;2022-07-21T12:55:32;4.18;;;2.10;;
9815;SDS011;4947;44.526;11.360;2022-07-21T12:57:59;5.95;;;2.70;;
9815;SDS011;4947;44.526;11.360;2022-07-21T13:00:27;3.70;;;2.35;;
9815;SDS011;4947;44.526;11.360;2022-07-21T13:02:57;4.63;;;2.72;;
9815;SDS011;4947;44.526;11.360;2022-07-21T13:05:26;8.18;;;2.53;;
9815;SDS011;4947;44.526;11.360;2022-07-21T13:07:54;5.35;;;2.40;;
9815;SDS011;4947;44.526;11.360;2022-07-21T13:10:22;7.22;;;2.85;;
9815;SDS011;4947;44.526;11.360;2022-07-21T13:12:49;8.55;;;3.80;;
9815;SDS011;4947;44.526;11.360;2022-07-21T13:15:17;3.13;;;2.83;;
9815;SDS011;4947;44.526;11.360;2022-07-21T13:17:44;4.22;;;2.70;;
9815;SDS011;4947;44.526;11.360;2022-07-21T13:20:12;8.77;;;2.72;;
9815;SDS011;4947;44.526;11.360;2022-07-21T13:22:41;5.75;;;3.33;;
9815;SDS011;4947;44.526;11.360;2022-07-21T13:25:09;4.63;;;2.72;;
9815;SDS011;4947;44.526;11.360;2022-07-21T13:27:38;6.30;;;3.15;;
9815;SDS011;4947;44.526;11.360;2022-07-21T13:30:06;10.75;;;3.00;;
9815;SDS011;4947;44.526;11.360;2022-07-21T13:32:39;5.32;;;3.10;;
9815;SDS011;4947;44.526;11.360;2022-07-21T13:35:06;9.40;;;3.03;;
9815;SDS011;4947;44.526;11.360;2022-07-21T13:37:35;7.13;;;2.40;;
9815;SDS011;4947;44.526;11.360;2022-07-21T13:40:05;5.55;;;2.42;;
9815;SDS011;4947;44.526;11.360;2022-07-21T13:42:33;4.07;;;2.50;;
9815;SDS011;4947;44.526;11.360;2022-07-21T13:45:01;6.80;;;2.75;;
9815;SDS011;4947;44.526;11.360;2022-07-21T13:47:29;3.90;;;2.50;;
9815;SDS011;4947;44.526;11.360;2022-07-21T13:49:57;8.18;;;2.38;;
9815;SDS011;4947;44.526;11.360;2022-07-21T13:52:24;11.50;;;2.67;;
9815;SDS011;4947;44.526;11.360;2022-07-21T13:54:52;4.15;;;2.55;;
9815;SDS011;4947;44.526;11.360;2022-07-21T13:57:25;5.78;;;2.30;;
9815;SDS011;4947;44.526;11.360;2022-07-21T13:59:53;6.13;;;2.35;;
9815;SDS011;4947;44.526;11.360;2022-07-21T14:02:20;6.03;;;2.35;;
9815;SDS011;4947;44.526;11.360;2022-07-21T14:04:48;5.88;;;2.55;;
9815;SDS011;4947;44.526;11.360;2022-07-21T14:07:15;6.03;;;2.15;;
9815;SDS011;4947;44.526;11.360;2022-07-21T14:09:43;6.07;;;2.70;;
9815;SDS011;4947;44.526;11.360;2022-07-21T14:12:11;8.98;;;2.83;;
9815;SDS011;4947;44.526;11.360;2022-07-21T14:14:43;2.45;;;2.25;;
9815;SDS011;4947;44.526;11.360;2022-07-21T14:17:12;7.38;;;2.50;;
9815;SDS011;4947;44.526;11.360;2022-07-21T14:19:39;6.00;;;2.85;;
9815;SDS011;4947;44.526;11.360;2022-07-21T14:22:08;9.88;;;2.50;;
9815;SDS011;4947;44.526;11.360;2022-07-21T14:24:36;5.95;;;2.10;;
9815;SDS011;4947;44.526;11.360;2022-07-21T14:27:21;4.55;;;1.98;;
9815;SDS011;4947;44.526;11.360;2022-07-21T14:29:50;5.75;;;2.28;;
9815;SDS011;4947;44.526;11.360;2022-07-21T14:32:18;5.90;;;2.13;;
9815;SDS011;4947;44.526;11.360;2022-07-21T14:34:47;4.75;;;2.55;;
9815;SDS011;4947;44.526;11.360;2022-07-21T14:37:14;7.88;;;2.45;;
9815;SDS011;4947;44.526;11.360;2022-07-21T14:39:43;3.50;;;2.58;;
9815;SDS011;4947;44.526;11.360;2022-07-21T14:42:13;5.28;;;2.60;;
9815;SDS011;4947;44.526;11.360;2022-07-21T14:44:41;11.27;;;2.60;;
9815;SDS011;4947;44.526;11.360;2022-07-21T14:47:10;9.75;;;2.53;;
9815;SDS011;4947;44.526;11.360;2022-07-21T14:49:37;5.53;;;2.95;;
9815;SDS011;4947;44.526;11.360;2022-07-21T14:52:05;3.95;;;3.08;;
9815;SDS011;4947;44.526;11.360;2022-07-21T14:54:33;6.63;;;2.53;;
9815;SDS011;4947;44.526;11.360;2022-07-21T14:57:01;7.88;;;2.50;;
9815;SDS011;4947;44.526;11.360;2022-07-21T14:59:30;2.22;;;2.03;;
9815;SDS011;4947;44.526;11.360;2022-07-21T15:01:57;6.78;;;2.42;;
9815;SDS011;4947;44.526;11.360;2022-07-21T15:04:27;8.73;;;2.42;;
9815;SDS011;4947;44.526;11.360;2022-07-21T15:06:54;9.05;;;2.97;;
9815;SDS011;4947;44.526;11.360;2022-07-21T15:09:24;4.53;;;2.20;;
9815;SDS011;4947;44.526;11.360;2022-07-21T15:11:51;6.65;;;2.78;;
9815;SDS011;4947;44.526;11.360;2022-07-21T15:14:19;5.22;;;2.78;;
9815;SDS011;4947;44.526;11.360;2022-07-21T15:16:47;7.97;;;3.05;;
9815;SDS011;4947;44.526;11.360;2022-07-21T15:19:14;10.98;;;2.90;;
9815;SDS011;4947;44.526;11.360;2022-07-21T15:21:43;12.57;;;2.90;;
9815;SDS011;4947;44.526;11.360;2022-07-21T15:24:11;8.38;;;2.80;;
9815;SDS011;4947;44.526;11.360;2022-07-21T15:26:39;7.82;;;2.97;;
9815;SDS011;4947;44.526;11.360;2022-07-21T15:29:06;5.38;;;2.85;;